Date,TemperatureHighF,TemperatureAvgF,TemperatureLowF,DewpointHighF,DewpointAvgF,DewpointLowF,HumidityHigh,HumidityAvg,HumidityLow,PressureMaxIn,PressureMinIn,WindSpeedMaxMPH,WindSpeedAvgMPH,GustSpeedMaxMPH,PrecipitationSumIn
2014-1-1,11.0,8.0,5.0,-99.9,-99.9,-99.9,0,0,100,0.00,40.00,0,-999,0,0.00
2014-1-2,11.0,6.1,-3.0,-99.9,-99.9,-99.9,0,0,100,0.00,40.00,0,-999,0,0.00
2014-1-3,18.0,2.6,-13.0,-99.9,-99.9,-99.9,0,0,100,0.00,40.00,0,-999,0,0.00
2014-1-4,29.0,23.8,18.0,-99.9,-99.9,-99.9,0,0,100,0.00,40.00,0,-999,0,0.00
2014-1-5,21.0,6.7,-7.0,-99.9,-99.9,-99.9,0,0,100,0.00,40.00,0,-999,0,0.00
2014-1-6,-10.0,-12.5,-18.0,-99.9,-99.9,-99.9,0,0,100,0.00,40.00,0,-999,0,0.00
2014-1-7,1.0,-5.0,-11.0,-99.9,-99.9,-99.9,0,0,100,0.00,40.00,0,-999,0,0.00
2014-1-8,11.0,1.4,-6.0,-99.9,-99.9,-99.9,0,0,100,0.00,40.00,0,-999,0,0.00
2014-1-9,23.0,5.6,-6.0,-99.9,-99.9,-99.9,0,0,100,0.00,40.00,0,-999,0,0.00
2014-1-10,35.0,29.3,23.0,-99.9,-99.9,-99.9,0,0,100,0.00,40.00,0,-999,0,0.00
2014-1-11,33.0,30.7,28.0,-99.9,-99.9,-99.9,0,0,100,0.00,40.00,0,-999,0,0.00
2014-1-12,39.0,31.9,24.0,-99.9,-99.9,-99.9,0,0,100,0.00,40.00,0,-999,0,0.00
2014-1-13,42.0,30.7,24.0,-99.9,-99.9,-99.9,0,0,100,0.00,40.00,0,-999,0,0.00
2014-1-14,32.0,24.5,18.0,-99.9,-99.9,-99.9,0,0,100,0.00,40.00,0,-999,0,0.00
2014-1-15,20.0,14.1,8.0,-99.9,-99.9,-99.9,0,0,100,0.00,40.00,0,-999,0,0.00
2014-1-16,35.0,22.8,12.0,-99.9,-99.9,-99.9,0,0,100,0.00,40.00,0,-999,0,0.00
2014-1-17,15.0,9.6,5.0,-99.9,-99.9,-99.9,0,0,100,0.00,40.00,0,-999,0,0.00
2014-1-18,19.0,11.2,4.0,-99.9,-99.9,-99.9,0,0,100,0.00,40.00,0,-999,0,0.00
2014-1-19,37.0,22.1,3.0,-99.9,-99.9,-99.9,0,0,100,0.00,40.00,0,-999,0,0.00
2014-1-20,34.0,26.5,10.0,-99.9,-99.9,-99.9,0,0,100,0.00,40.00,0,-999,0,0.00
2014-1-21,10.0,2.7,-3.0,-99.9,-99.9,-99.9,0,0,100,0.00,40.00,0,-999,0,0.00
2014-1-22,16.0,7.9,1.0,-99.9,-99.9,-99.9,0,0,100,0.00,40.00,0,-999,0,0.00
2014-1-23,3.0,-3.2,-9.0,-99.9,-99.9,-99.9,0,0,100,0.00,40.00,0,-999,0,0.00
2014-1-24,28.0,12.2,-10.0,-99.9,-99.9,-99.9,0,0,100,0.00,40.00,0,-999,0,0.00
2014-1-25,32.0,15.3,5.0,-99.9,-99.9,-99.9,0,0,100,0.00,40.00,0,-999,0,0.00
2014-1-26,32.0,17.4,1.0,-99.9,-99.9,-99.9,0,0,100,0.00,40.00,0,-999,0,0.00
2014-1-27,-1.0,-5.0,-8.0,-99.9,-99.9,-99.9,0,0,100,0.00,40.00,0,-999,0,0.00
2014-1-28,6.0,-2.5,-14.0,-99.9,-99.9,-99.9,0,0,100,0.00,40.00,0,-999,0,0.00
2014-1-29,23.0,9.7,-7.0,-99.9,-99.9,-99.9,0,0,100,0.00,40.00,0,-999,0,0.00
2014-1-30,29.0,22.7,16.0,-99.9,-99.9,-99.9,0,0,100,0.00,40.00,0,-999,0,0.00
2014-1-31,17.0,12.1,8.0,-99.9,-99.9,-99.9,0,0,100,0.00,40.00,0,-999,0,0.00
2014-2-1,22.0,17.2,13.0,-99.9,-99.9,-99.9,0,0,100,0.00,40.00,0,-999,0,0.00
2014-2-2,17.0,5.8,-8.0,-99.9,-99.9,-99.9,0,0,100,0.00,40.00,0,-999,0,0.00
2014-2-3,14.0,0.8,-16.0,-99.9,-99.9,-99.9,0,0,100,0.00,40.00,0,-999,0,0.00
2014-2-4,18.0,10.9,2.0,-99.9,-99.9,-99.9,0,0,100,0.00,40.00,0,-999,0,0.00
2014-2-5,21.0,14.7,3.0,-99.9,-99.9,-99.9,0,0,100,0.00,40.00,0,-999,0,0.00
2014-2-6,4.0,-2.5,-8.0,-99.9,-99.9,-99.9,0,0,100,0.00,40.00,0,-999,0,0.00
2014-2-7,10.0,1.0,-13.0,-99.9,-99.9,-99.9,0,0,100,0.00,40.00,0,-999,0,0.00
2014-2-8,15.0,9.8,1.0,-99.9,-99.9,-99.9,0,0,100,0.00,40.00,0,-999,0,0.00
2014-2-9,18.0,8.7,-1.0,-99.9,-99.9,-99.9,0,0,100,0.00,40.00,0,-999,0,0.00
2014-2-10,7.0,-5.3,-13.0,-99.9,-99.9,-99.9,0,0,100,0.00,40.00,0,-999,0,0.00
2014-2-11,9.0,-4.7,-18.0,-99.9,-99.9,-99.9,0,0,100,0.00,40.00,0,-999,0,0.00
2014-2-12,19.0,8.5,-6.0,-99.9,-99.9,-99.9,0,0,100,0.00,40.00,0,-999,0,0.00
2014-2-13,34.0,20.1,9.0,-99.9,-99.9,-99.9,0,0,100,0.00,40.00,0,-999,0,0.00
2014-2-14,21.0,12.8,3.0,-99.9,-99.9,-99.9,0,0,100,0.00,40.00,0,-999,0,0.00
2014-2-15,18.0,10.5,1.0,-99.9,-99.9,-99.9,0,0,100,0.00,40.00,0,-999,0,0.00
2014-2-16,23.0,18.5,14.0,-99.9,-99.9,-99.9,0,0,100,0.00,40.00,0,-999,0,0.00
2014-2-17,29.0,22.5,18.0,-99.9,-99.9,-99.9,0,0,100,0.00,40.00,0,-999,0,0.00
2014-2-18,42.0,27.7,13.0,-99.9,-99.9,-99.9,0,0,100,0.00,40.00,0,-999,0,0.00
2014-2-19,38.0,32.5,25.0,-99.9,-99.9,-99.9,0,0,100,0.00,40.00,0,-999,0,0.00
2014-2-20,38.0,33.1,32.0,-99.9,-99.9,-99.9,0,0,100,0.00,40.00,0,-999,0,0.00
2014-2-21,32.0,27.3,21.0,-99.9,-99.9,-99.9,0,0,100,0.00,40.00,0,-999,0,0.00
2014-2-22,31.0,23.6,18.0,-99.9,-99.9,-99.9,0,0,100,0.00,40.00,0,-999,0,0.00
2014-2-23,25.0,18.7,13.0,-99.9,-99.9,-99.9,0,0,100,0.00,40.00,0,-999,0,0.00
2014-2-24,21.0,15.4,9.0,-99.9,-99.9,-99.9,0,0,100,0.00,40.00,0,-999,0,0.00
2014-2-25,20.0,10.2,3.0,-99.9,-99.9,-99.9,0,0,100,0.00,40.00,0,-999,0,0.00
2014-2-26,17.0,7.6,-4.0,-99.9,-99.9,-99.9,0,0,100,0.00,40.00,0,-999,0,0.00
2014-2-27,17.0,6.4,1.0,-99.9,-99.9,-99.9,0,0,100,0.00,40.00,0,-999,0,0.00
2014-2-28,29.0,15.0,-2.0,-99.9,-99.9,-99.9,0,0,100,0.00,40.00,0,-999,0,0.00
2014-3-1,25.0,15.5,7.0,-99.9,-99.9,-99.9,0,0,100,0.00,40.00,0,-999,0,0.00
2014-3-2,8.0,4.0,-3.0,-99.9,-99.9,-99.9,0,0,100,0.00,40.00,0,-999,0,0.00
2014-3-3,15.0,2.6,-10.0,-99.9,-99.9,-99.9,0,0,100,0.00,40.00,0,-999,0,0.00
2014-3-4,27.0,17.3,7.0,-99.9,-99.9,-99.9,0,0,100,0.00,40.00,0,-999,0,0.00
2014-3-5,21.0,18.0,15.0,-99.9,-99.9,-99.9,0,0,100,0.00,40.00,0,-999,0,0.00
2014-3-6,23.0,14.7,7.0,-99.9,-99.9,-99.9,0,0,100,0.00,40.00,0,-999,0,0.00
2014-3-7,41.0,27.0,14.0,-99.9,-99.9,-99.9,0,0,100,0.00,40.00,0,-999,0,0.00
2014-3-8,34.0,30.2,24.0,-99.9,-99.9,-99.9,0,0,100,0.00,40.00,0,-999,0,0.00
2014-3-9,36.0,28.7,16.0,-99.9,-99.9,-99.9,0,0,100,0.00,40.00,0,-999,0,0.00
2014-3-10,52.0,41.1,34.0,-99.9,-99.9,-99.9,0,0,100,0.00,40.00,0,-999,0,0.00
2014-3-11,43.0,36.9,33.0,-99.9,-99.9,-99.9,0,0,100,0.00,40.00,0,-999,0,0.00
2014-3-12,35.0,29.6,25.0,-99.9,-99.9,-99.9,0,0,100,0.00,40.00,0,-999,0,0.00
2014-3-13,40.0,28.5,19.0,-99.9,-99.9,-99.9,0,0,100,0.00,40.00,0,-999,0,0.00
2014-3-14,51.0,40.5,34.0,-99.9,-99.9,-99.9,0,0,100,0.00,40.00,0,-999,0,0.00
2014-3-15,40.0,34.2,30.0,-99.9,-99.9,-99.9,0,0,100,0.00,40.00,0,-999,0,0.00
2014-3-16,27.0,21.6,18.0,-99.9,-99.9,-99.9,0,0,100,0.00,40.00,0,-999,0,0.00
2014-3-17,36.0,23.2,14.0,-99.9,-99.9,-99.9,0,0,100,0.00,40.00,0,-999,0,0.00
2014-3-18,47.0,34.4,29.0,-99.9,-99.9,-99.9,0,0,100,0.00,40.00,0,-999,0,0.00
2014-3-19,38.0,34.8,32.0,-99.9,-99.9,-99.9,0,0,100,0.00,40.00,0,-999,0,0.00
2014-3-20,45.0,35.7,29.0,-99.9,-99.9,-99.9,0,0,100,0.00,40.00,0,-999,0,0.00
2014-3-21,56.0,40.5,31.0,-99.9,-99.9,-99.9,0,0,100,0.00,40.00,0,-999,0,0.00
2014-3-22,39.0,33.1,25.0,-99.9,-99.9,-99.9,0,0,100,0.00,40.00,0,-999,0,0.00
2014-3-23,32.0,24.6,16.0,-99.9,-99.9,-99.9,0,0,100,0.00,40.00,0,-999,0,0.00
2014-3-24,36.0,27.6,19.0,-99.9,-99.9,-99.9,0,0,100,0.00,40.00,0,-999,0,0.00
2014-3-25,29.0,23.4,17.0,-99.9,-99.9,-99.9,0,0,100,0.00,40.00,0,-999,0,0.00
2014-3-26,37.0,27.3,14.0,-99.9,-99.9,-99.9,0,0,100,0.00,40.00,0,-999,0,0.00
2014-3-27,49.0,39.1,33.0,-99.9,-99.9,-99.9,0,0,100,0.00,40.00,0,-999,0,0.00
2014-3-28,49.0,37.6,36.0,-99.9,-99.9,-99.9,0,0,100,0.00,40.00,0,-999,0,0.00
2014-3-29,46.0,38.4,32.0,-99.9,-99.9,-99.9,0,0,100,0.00,40.00,0,-999,0,0.00
2014-3-30,58.0,41.8,27.0,-99.9,-99.9,-99.9,0,0,100,0.00,40.00,0,-999,0,0.00
2014-3-31,64.0,51.1,40.0,-99.9,-99.9,-99.9,0,0,100,0.00,40.00,0,-999,0,0.00
2014-4-1,52.0,38.5,26.0,-99.9,-99.9,-99.9,0,0,100,0.00,40.00,0,-999,0,0.00
2014-4-2,48.0,39.5,29.0,-99.9,-99.9,-99.9,0,0,100,0.00,40.00,0,-999,0,0.00
2014-4-3,39.0,37.1,34.0,-99.9,-99.9,-99.9,0,0,100,0.00,40.00,0,-999,0,0.00
2014-4-4,42.0,36.5,35.0,-99.9,-99.9,-99.9,0,0,100,0.00,40.00,0,-999,0,0.00
2014-4-5,51.0,39.6,27.0,-99.9,-99.9,-99.9,0,0,100,0.00,40.00,0,-999,0,0.00
2014-4-6,54.0,42.3,29.0,-99.9,-99.9,-99.9,0,0,100,0.00,40.00,0,-999,0,0.00
2014-4-7,61.0,49.3,37.0,-99.9,-99.9,-99.9,0,0,100,0.00,40.00,0,-999,0,0.00
2014-4-8,59.0,48.5,38.0,-99.9,-99.9,-99.9,0,0,100,0.00,40.00,0,-999,0,0.00
2014-4-9,63.0,48.8,31.0,-99.9,-99.9,-99.9,0,0,100,0.00,40.00,0,-999,0,0.00
2014-4-10,67.0,56.8,45.0,-99.9,-99.9,-99.9,0,0,100,0.00,40.00,0,-999,0,0.00
2014-4-11,71.0,56.4,34.0,-99.9,-99.9,-99.9,0,0,100,0.00,40.00,0,-999,0,0.00
2014-4-12,79.0,60.3,45.0,-99.9,-99.9,-99.9,0,0,100,0.00,40.00,0,-999,0,0.00
2014-4-13,65.0,59.6,53.0,-99.9,-99.9,-99.9,0,0,100,0.00,40.00,0,-999,0,0.00
2014-4-14,61.0,37.0,31.0,-99.9,-99.9,-99.9,0,0,100,0.00,40.00,0,-999,0,0.00
2014-4-15,40.0,32.3,25.0,-99.9,-99.9,-99.9,0,0,100,0.00,40.00,0,-999,0,0.00
2014-4-16,53.0,39.6,27.0,-99.9,-99.9,-99.9,0,0,100,0.00,40.00,0,-999,0,0.00
2014-4-17,57.0,47.1,40.0,-99.9,-99.9,-99.9,0,0,100,0.00,40.00,0,-999,0,0.00
2014-4-18,62.0,44.2,32.0,-99.9,-99.9,-99.9,0,0,100,0.00,40.00,0,-999,0,0.00
2014-4-19,69.0,53.0,33.0,-99.9,-99.9,-99.9,0,0,100,0.00,40.00,0,-999,0,0.00
2014-4-20,80.0,63.7,45.0,-99.9,-99.9,-99.9,0,0,100,0.00,40.00,0,-999,0,0.00
2014-4-21,67.0,60.6,53.0,-99.9,-99.9,-99.9,0,0,100,0.00,40.00,0,-999,0,0.00
2014-4-22,61.0,50.1,40.0,-99.9,-99.9,-99.9,0,0,100,0.00,40.00,0,-999,0,0.00
2014-4-23,53.0,43.7,33.0,-99.9,-99.9,-99.9,0,0,100,0.00,40.00,0,-999,0,0.00
2014-4-24,59.0,50.0,39.0,-99.9,-99.9,-99.9,0,0,100,0.00,40.00,0,-999,0,0.00
2014-4-25,69.0,55.3,42.0,-99.9,-99.9,-99.9,0,0,100,0.00,40.00,0,-999,0,0.00
2014-4-26,65.0,53.9,43.0,-99.9,-99.9,-99.9,0,0,100,0.00,40.00,0,-999,0,0.00
2014-4-27,63.0,49.5,40.0,-99.9,-99.9,-99.9,0,0,100,0.00,40.00,0,-999,0,0.00
2014-4-28,53.0,49.6,44.0,-99.9,-99.9,-99.9,0,0,100,0.00,40.00,0,-999,0,0.00
2014-4-29,56.0,51.0,47.0,-99.9,-99.9,-99.9,0,0,100,0.00,40.00,0,-999,0,0.00
2014-4-30,47.0,43.4,39.0,-99.9,-99.9,-99.9,0,0,100,0.00,40.00,0,-999,0,0.00
2014-5-1,47.0,43.1,39.0,-99.9,-99.9,-99.9,0,0,100,0.00,40.00,0,-999,0,0.00
2014-5-2,56.0,49.5,43.0,-99.9,-99.9,-99.9,0,0,100,0.00,40.00,0,-999,0,0.00
2014-5-3,68.0,55.5,43.0,-99.9,-99.9,-99.9,0,0,100,0.00,40.00,0,-999,0,0.00
2014-5-4,56.0,51.8,47.0,-99.9,-99.9,-99.9,0,0,100,0.00,40.00,0,-999,0,0.00
2014-5-5,62.0,52.5,43.0,-99.9,-99.9,-99.9,0,0,100,0.00,40.00,0,-999,0,0.00
2014-5-6,69.0,55.7,40.0,-99.9,-99.9,-99.9,0,0,100,0.00,40.00,0,-999,0,0.00
2014-5-13,53.0,50.7,47.0,-99.9,-99.9,-99.9,0,0,100,0.00,40.00,0,-999,0,0.00
2014-5-14,54.0,49.2,42.0,-99.9,-99.9,-99.9,0,0,100,0.00,40.00,0,-999,0,0.00
2014-5-15,54.0,48.1,44.0,-99.9,-99.9,-99.9,0,0,100,0.00,40.00,0,-999,0,0.00
2014-5-16,51.0,41.9,34.0,-99.9,-99.9,-99.9,0,0,100,0.00,40.00,0,-999,0,0.00
2014-5-17,60.0,50.9,37.0,-99.9,-99.9,-99.9,0,0,100,0.00,40.00,0,-999,0,0.00
2014-5-18,70.0,55.3,40.0,-99.9,-99.9,-99.9,0,0,100,0.00,40.00,0,-999,0,0.00
2014-5-19,69.0,57.6,48.0,-99.9,-99.9,-99.9,0,0,100,0.00,40.00,0,-999,0,0.00
2014-5-20,84.0,72.2,61.0,-99.9,-99.9,-99.9,0,0,100,0.00,40.00,0,-999,0,0.00
2014-5-21,87.0,76.0,64.0,-99.9,-99.9,-99.9,0,0,100,0.00,40.00,0,-999,0,0.00
2014-5-22,73.0,64.5,51.0,-99.9,-99.9,-99.9,0,0,100,0.00,40.00,0,-999,0,0.00
2014-5-23,75.0,62.9,51.0,-99.9,-99.9,-99.9,0,0,100,0.00,40.00,0,-999,0,0.00
2014-5-24,78.0,63.7,47.0,-99.9,-99.9,-99.9,0,0,100,0.00,40.00,0,-999,0,0.00
2014-5-25,84.0,71.5,53.0,-99.9,-99.9,-99.9,0,0,100,0.00,40.00,0,-999,0,0.00
2014-5-26,88.0,73.3,65.0,-99.9,-99.9,-99.9,0,0,100,0.00,40.00,0,-999,0,0.00
2014-5-27,84.0,74.1,65.0,-99.9,-99.9,-99.9,0,0,100,0.00,40.00,0,-999,0,0.00
2014-5-28,80.0,69.0,64.0,-99.9,-99.9,-99.9,0,0,100,0.00,40.00,0,-999,0,0.00
2014-5-29,81.0,66.6,55.0,-99.9,-99.9,-99.9,0,0,100,0.00,40.00,0,-999,0,0.00
2014-5-30,85.0,71.1,58.0,-99.9,-99.9,-99.9,0,0,100,0.00,40.00,0,-999,0,0.00
2014-5-31,87.0,74.7,58.0,-99.9,-99.9,-99.9,0,0,100,0.00,40.00,0,-999,0,0.00
2014-6-1,88.0,77.3,69.0,-99.9,-99.9,-99.9,0,0,100,0.00,40.00,0,-999,0,0.00
2014-6-2,80.0,75.0,70.0,-99.9,-99.9,-99.9,0,0,100,0.00,40.00,0,-999,0,0.00
2014-6-3,81.0,72.2,63.0,-99.9,-99.9,-99.9,0,0,100,0.00,40.00,0,-999,0,0.00
2014-6-4,70.0,64.0,59.0,-99.9,-99.9,-99.9,0,0,100,0.00,40.00,0,-999,0,0.00
2014-6-5,76.0,64.4,53.0,-99.9,-99.9,-99.9,0,0,100,0.00,40.00,0,-999,0,0.00
2014-6-6,83.0,69.4,55.0,-99.9,-99.9,-99.9,0,0,100,0.00,40.00,0,-999,0,0.00
2014-6-7,79.0,69.9,61.0,-99.9,-99.9,-99.9,0,0,100,0.00,40.00,0,-999,0,0.00
2014-6-8,69.0,63.3,59.0,-99.9,-99.9,-99.9,0,0,100,0.00,40.00,0,-999,0,0.00
2014-6-9,78.0,65.8,51.0,-99.9,-99.9,-99.9,0,0,100,0.00,40.00,0,-999,0,0.00
2014-6-10,68.0,61.1,58.0,-99.9,-99.9,-99.9,0,0,100,0.00,40.00,0,-999,0,0.00
2014-6-11,70.0,63.3,58.0,-99.9,-99.9,-99.9,0,0,100,0.00,40.00,0,-999,0,0.00
2014-6-12,75.0,67.0,58.0,-99.9,-99.9,-99.9,0,0,100,0.00,40.00,0,-999,0,0.00
2014-6-13,76.0,63.5,50.0,-99.9,-99.9,-99.9,0,0,100,0.00,40.00,0,-999,0,0.00
2014-6-14,76.0,64.7,52.0,-99.9,-99.9,-99.9,0,0,100,0.00,40.00,0,-999,0,0.00
2014-6-15,85.0,72.7,59.0,-99.9,-99.9,-99.9,0,0,100,0.00,40.00,0,-999,0,0.00
2014-6-16,88.0,76.0,61.0,-99.9,-99.9,-99.9,0,0,100,0.00,40.00,0,-999,0,0.00
2014-6-17,88.0,78.5,66.0,-99.9,-99.9,-99.9,0,0,100,0.00,40.00,0,-999,0,0.00
2014-6-18,82.0,74.9,69.0,-99.9,-99.9,-99.9,0,0,100,0.00,40.00,0,-999,0,0.00
2014-6-19,80.0,70.8,65.0,-99.9,-99.9,-99.9,0,0,100,0.00,40.00,0,-999,0,0.00
2014-6-20,84.0,75.7,67.0,-99.9,-99.9,-99.9,0,0,100,0.00,40.00,0,-999,0,0.00
2014-6-21,86.0,74.4,65.0,-99.9,-99.9,-99.9,0,0,100,0.00,40.00,0,-999,0,0.00
2014-6-22,81.0,71.4,63.0,-99.9,-99.9,-99.9,0,0,100,0.00,40.00,0,-999,0,0.00
2014-6-23,80.0,70.0,65.0,-99.9,-99.9,-99.9,0,0,100,0.00,40.00,0,-999,0,0.00
2014-6-24,86.0,76.2,67.0,-99.9,-99.9,-99.9,0,0,100,0.00,40.00,0,-999,0,0.00
2014-6-25,89.0,78.5,65.0,-99.9,-99.9,-99.9,0,0,100,0.00,40.00,0,-999,0,0.00
2014-6-26,80.0,66.9,61.0,-99.9,-99.9,-99.9,0,0,100,0.00,40.00,0,-999,0,0.00
2014-6-27,83.0,74.3,65.0,-99.9,-99.9,-99.9,0,0,100,0.00,40.00,0,-999,0,0.00
2014-6-28,81.0,75.3,68.0,-99.9,-99.9,-99.9,0,0,100,0.00,40.00,0,-999,0,0.00
2014-6-29,83.0,72.0,65.0,-99.9,-99.9,-99.9,0,0,100,0.00,40.00,0,-999,0,0.00
2014-6-30,84.0,71.7,63.0,-99.9,-99.9,-99.9,0,0,100,0.00,40.00,0,-999,0,0.00
2014-7-1,79.0,72.8,65.0,-99.9,-99.9,-99.9,0,0,100,0.00,40.00,0,-999,0,0.00
2014-7-2,69.0,63.2,58.0,-99.9,-99.9,-99.9,0,0,100,0.00,40.00,0,-999,0,0.00
2014-7-3,77.0,69.0,55.0,-99.9,-99.9,-99.9,0,0,100,0.00,40.00,0,-999,0,0.00
2014-7-4,80.0,69.7,54.0,-99.9,-99.9,-99.9,0,0,100,0.00,40.00,0,-999,0,0.00
2014-7-5,73.0,63.9,56.0,-99.9,-99.9,-99.9,0,0,100,0.00,40.00,0,-999,0,0.00
2014-7-6,87.0,74.9,62.0,-99.9,-99.9,-99.9,0,0,100,0.00,40.00,0,-999,0,0.00
2014-7-7,88.0,77.0,70.0,-99.9,-99.9,-99.9,0,0,100,0.00,40.00,0,-999,0,0.00
2014-7-8,81.0,74.5,66.0,-99.9,-99.9,-99.9,0,0,100,0.00,40.00,0,-999,0,0.00
2014-7-9,80.0,68.9,58.0,-99.9,0.0,200.0,0,0,100,0.00,40.00,0,0,0,0.00
2014-7-10,81.0,69.6,59.0,-99.9,0.0,200.0,0,0,100,0.00,40.00,0,0,0,0.00
2014-7-11,76.0,68.9,60.0,-99.9,0.0,200.0,0,0,100,0.00,40.00,0,0,0,0.00
2014-7-12,84.0,74.4,69.0,-99.9,0.0,200.0,0,0,100,0.00,40.00,0,0,0,0.00
2014-7-13,85.0,73.0,65.0,-99.9,0.0,200.0,0,0,100,0.00,40.00,0,0,0,0.00
2014-7-14,79.0,67.2,62.0,-99.9,0.0,200.0,0,0,100,0.00,40.00,0,0,0,0.00
2014-7-15,68.0,59.3,51.0,-99.9,0.0,200.0,0,0,100,0.00,40.00,0,0,0,0.00
2014-7-16,76.0,67.4,53.0,-99.9,0.0,200.0,0,0,100,0.00,40.00,0,0,0,0.00
2014-7-17,80.0,68.0,53.0,-99.9,0.0,200.0,0,0,100,0.00,40.00,0,0,0,0.00
2014-7-18,78.0,67.4,57.0,-99.9,0.0,200.0,0,0,100,0.00,40.00,0,0,0,0.00
2014-7-19,77.0,68.4,57.0,-99.9,0.0,200.0,0,0,100,0.00,40.00,0,0,0,0.00
2014-7-20,80.0,69.8,58.0,-99.9,0.0,200.0,0,0,100,0.00,40.00,0,0,0,0.00
2014-7-21,83.0,74.4,62.0,-99.9,0.0,200.0,0,0,100,0.00,40.00,0,0,0,0.00
2014-7-22,92.0,80.9,69.0,-99.9,0.0,200.0,0,0,100,0.00,40.00,0,0,0,0.00
2014-7-23,76.0,71.2,65.0,-99.9,0.0,200.0,0,0,100,0.00,40.00,0,0,0,0.00
2014-7-24,77.0,65.7,57.0,-99.9,0.0,200.0,0,0,100,0.00,40.00,0,0,0,0.00
2014-7-25,69.0,63.2,58.0,-99.9,0.0,200.0,0,0,100,0.00,40.00,0,0,0,0.00
2014-7-26,84.0,73.4,65.0,-99.9,0.0,200.0,0,0,100,0.00,40.00,0,0,0,0.00
2014-7-27,82.0,72.5,65.0,-99.9,0.0,200.0,0,0,100,0.00,40.00,0,0,0,0.00
2014-7-28,73.0,63.0,56.0,-99.9,0.0,200.0,0,0,100,0.00,40.00,0,0,0,0.00
2014-7-29,81.0,71.4,54.0,-99.9,0.0,200.0,0,0,100,0.00,40.00,0,0,0,0.00
2014-7-30,83.0,75.7,61.0,-99.9,0.0,200.0,0,0,100,0.00,40.00,0,0,0,0.00
2014-7-31,84.0,69.5,58.0,-99.9,0.0,200.0,0,0,100,0.00,40.00,0,0,0,0.00
2014-8-1,85.0,72.0,60.0,-99.9,0.0,200.0,0,0,100,0.00,40.00,0,0,0,0.00
2014-8-2,83.0,71.1,58.0,-99.9,0.0,200.0,0,0,100,0.00,40.00,0,0,0,0.00
2014-8-3,87.0,75.2,61.0,-99.9,0.0,200.0,0,0,100,0.00,40.00,0,0,0,0.00
2014-8-4,88.0,75.9,62.0,-99.9,0.0,200.0,0,0,100,0.00,40.00,0,0,0,0.00
2014-8-5,79.0,71.5,65.0,-99.9,0.0,200.0,0,0,100,0.00,40.00,0,0,0,0.00
2014-8-6,78.0,69.8,62.0,-99.9,0.0,200.0,0,0,100,0.00,40.00,0,0,0,0.00
2014-8-7,76.0,71.4,66.0,-99.9,0.0,200.0,0,0,100,0.00,40.00,0,0,0,0.00
2014-8-8,77.0,68.3,62.0,-99.9,0.0,200.0,0,0,100,0.00,40.00,0,0,0,0.00
2014-8-9,79.0,70.7,62.0,-99.9,0.0,200.0,0,0,100,0.00,40.00,0,0,0,0.00
2014-8-10,80.0,73.1,61.0,-99.9,0.0,200.0,0,0,100,0.00,40.00,0,0,0,0.00
2014-8-11,85.0,72.3,65.0,-99.9,0.0,200.0,0,0,100,0.00,40.00,0,0,0,0.00
2014-8-12,79.0,69.1,61.0,-99.9,0.0,200.0,0,0,100,0.00,40.00,0,0,0,0.00
2014-8-13,84.0,71.3,54.0,-99.9,0.0,200.0,0,0,100,0.00,40.00,0,0,0,0.00
2014-8-14,77.0,66.7,57.0,-99.9,0.0,200.0,0,0,100,0.00,40.00,0,0,0,0.00
2014-8-15,75.0,63.7,51.0,-99.9,0.0,200.0,0,0,100,0.00,40.00,0,0,0,0.00
2014-8-16,76.0,68.4,60.0,-99.9,0.0,200.0,0,0,100,0.00,40.00,0,0,0,0.00
2014-8-17,79.0,70.7,61.0,-99.9,0.0,200.0,0,0,100,0.00,40.00,0,0,0,0.00
2014-8-18,83.0,70.8,61.0,-99.9,0.0,200.0,0,0,100,0.00,40.00,0,0,0,0.00
2014-8-19,87.0,75.2,67.0,-99.9,0.0,200.0,0,0,100,0.00,40.00,0,0,0,0.00
2014-8-20,84.0,74.2,62.0,-99.9,0.0,200.0,0,0,100,0.00,40.00,0,0,0,0.00
2014-8-21,81.0,73.5,69.0,-99.9,0.0,200.0,0,0,100,0.00,40.00,0,0,0,0.00
2014-8-22,86.0,77.1,72.0,-99.9,0.0,200.0,0,0,100,0.00,40.00,0,0,0,0.00
2014-8-23,77.0,73.8,69.0,-99.9,0.0,200.0,0,0,100,0.00,40.00,0,0,0,0.00
2014-8-24,88.0,79.2,68.0,-99.9,0.0,200.0,0,0,100,0.00,40.00,0,0,0,0.00
2014-8-25,85.0,79.2,75.0,-99.9,0.0,200.0,0,0,100,0.00,40.00,0,0,0,0.00
2014-8-26,80.0,73.1,68.0,-99.9,0.0,200.0,0,0,100,0.00,40.00,0,0,0,0.00
2014-8-27,82.0,70.0,63.0,-99.9,0.0,200.0,0,0,100,0.00,40.00,0,0,0,0.00
2014-8-28,73.0,66.1,62.0,-99.9,0.0,200.0,0,0,100,0.00,40.00,0,0,0,0.00
2014-8-29,84.0,74.0,66.0,-99.9,0.0,200.0,0,0,100,0.00,40.00,0,0,0,0.00
2014-8-30,82.0,72.6,67.0,-99.9,0.0,200.0,0,0,100,0.00,40.00,0,0,0,0.00
2014-8-31,85.0,73.3,61.0,-99.9,0.0,200.0,0,0,100,0.00,40.00,0,0,0,0.00
2014-9-1,82.0,72.6,65.0,-99.9,0.0,200.0,0,0,100,0.00,40.00,0,0,0,0.00
2014-9-2,81.0,70.3,62.0,-99.9,0.0,200.0,0,0,100,0.00,40.00,0,0,0,0.00
2014-9-3,84.0,71.9,55.0,-99.9,0.0,200.0,0,0,100,0.00,40.00,0,0,0,0.00
2014-9-4,84.0,73.8,66.0,-99.9,0.0,200.0,0,0,100,0.00,40.00,0,0,0,0.00
2014-9-5,83.0,73.8,60.0,-99.9,0.0,200.0,0,0,100,0.00,40.00,0,0,0,0.00
2014-9-6,74.0,63.8,53.0,-99.9,0.0,200.0,0,0,100,0.00,40.00,0,0,0,0.00
2014-9-7,78.0,64.1,51.0,-99.9,0.0,200.0,0,0,100,0.00,40.00,0,0,0,0.00
2014-9-8,76.0,65.5,52.0,-99.9,0.0,200.0,0,0,100,0.00,40.00,0,0,0,0.00
2014-9-9,79.0,69.3,62.0,-99.9,0.0,200.0,0,0,100,0.00,40.00,0,0,0,0.00
2014-9-10,76.0,68.0,58.0,-99.9,0.0,200.0,0,0,100,0.00,40.00,0,0,0,0.00
2014-9-11,54.0,51.2,47.0,-99.9,0.0,200.0,0,0,100,0.00,40.00,0,0,0,0.00
2014-9-12,51.0,47.1,42.0,-99.9,0.0,200.0,0,0,100,0.00,40.00,0,0,0,0.00
2014-9-13,60.0,46.8,37.0,-99.9,0.0,200.0,0,0,100,0.00,40.00,0,0,0,0.00
2014-9-14,67.0,54.4,37.0,-99.9,0.0,200.0,0,0,100,0.00,40.00,0,0,0,0.00
2014-9-15,62.0,51.8,45.0,-99.9,0.0,200.0,0,0,100,0.00,40.00,0,0,0,0.00
2014-9-16,68.0,52.7,38.0,-99.9,0.0,200.0,0,0,100,0.00,40.00,0,0,0,0.00
2014-9-17,71.0,58.2,42.0,-99.9,0.0,200.0,0,0,100,0.00,40.00,0,0,0,0.00
2014-9-18,71.0,58.3,47.0,-99.9,0.0,200.0,0,0,100,0.00,40.00,0,0,0,0.00
2014-9-19,74.0,64.2,50.0,-99.9,0.0,200.0,0,0,100,0.00,40.00,0,0,0,0.00
2014-9-20,76.0,67.5,58.0,-99.9,0.0,200.0,0,0,100,0.00,40.00,0,0,0,0.00
2014-9-21,66.0,59.9,50.0,-99.9,0.0,200.0,0,0,100,0.00,40.00,0,0,0,0.00
2014-9-22,69.0,57.3,41.0,-99.9,0.0,200.0,0,0,100,0.00,40.00,0,0,0,0.00
2014-9-23,74.0,56.1,43.0,-99.9,0.0,200.0,0,0,100,0.00,40.00,0,0,0,0.00
2014-9-24,75.0,62.5,52.0,-99.9,0.0,200.0,0,0,100,0.00,40.00,0,0,0,0.00
2014-9-25,77.0,65.4,55.0,-99.9,0.0,200.0,0,0,100,0.00,40.00,0,0,0,0.00
2014-9-26,81.0,66.1,54.0,-99.9,0.0,200.0,0,0,100,0.00,40.00,0,0,0,0.00
2014-9-27,82.0,69.0,55.0,-99.9,0.0,200.0,0,0,100,0.00,40.00,0,0,0,0.00
2014-9-28,83.0,70.0,54.0,-99.9,0.0,200.0,0,0,100,0.00,40.00,0,0,0,0.00
2014-9-29,84.0,67.1,53.0,-99.9,0.0,200.0,0,0,100,0.00,40.00,0,0,0,0.00
2014-9-30,61.0,53.5,48.0,-99.9,0.0,200.0,0,0,100,0.00,40.00,0,0,0,0.00
2014-10-1,75.0,60.2,47.0,-99.9,0.0,200.0,0,0,100,0.00,40.00,0,0,0,0.00
2014-10-2,69.0,64.8,62.0,-99.9,0.0,200.0,0,0,100,0.00,40.00,0,0,0,0.00
2014-10-3,63.0,50.3,43.0,-99.9,0.0,200.0,0,0,100,0.00,40.00,0,0,0,0.00
2014-10-4,49.0,40.8,34.0,-99.9,0.0,200.0,0,0,100,0.00,40.00,0,0,0,0.00
2014-10-5,56.0,46.1,32.0,-99.9,0.0,200.0,0,0,100,0.00,40.00,0,0,0,0.00
2014-10-6,58.0,51.5,43.0,-99.9,0.0,200.0,0,0,100,0.00,40.00,0,0,0,0.00
2014-10-7,64.0,51.4,42.0,-99.9,0.0,200.0,0,0,100,0.00,40.00,0,0,0,0.00
2014-10-8,66.0,52.0,40.0,-99.9,0.0,200.0,0,0,100,0.00,40.00,0,0,0,0.00
2014-10-9,66.0,54.8,45.0,-99.9,0.0,200.0,0,0,100,0.00,40.00,0,0,0,0.00
2014-10-10,57.0,46.7,37.0,-99.9,0.0,200.0,0,0,100,0.00,40.00,0,0,0,0.00
2014-10-11,59.0,44.9,33.0,-99.9,0.0,200.0,0,0,100,0.00,40.00,0,0,0,0.00
2014-10-12,59.0,47.3,36.0,-99.9,0.0,200.0,0,0,100,0.00,40.00,0,0,0,0.00
2014-10-13,65.0,57.6,53.0,-99.9,0.0,200.0,0,0,100,0.00,40.00,0,0,0,0.00
2014-10-14,63.0,57.3,51.0,-99.9,0.0,200.0,0,0,100,0.00,40.00,0,0,0,0.00
2014-10-15,54.0,51.1,49.0,-99.9,0.0,200.0,0,0,100,0.00,40.00,0,0,0,0.00
2014-10-16,67.0,55.3,49.0,-99.9,0.0,200.0,0,0,100,0.00,40.00,0,0,0,0.00
2014-10-17,56.0,51.2,47.0,-99.9,0.0,200.0,0,0,100,0.00,40.00,0,0,0,0.00
2014-10-18,51.0,46.3,35.0,-99.9,0.0,200.0,0,0,100,0.00,40.00,0,0,0,0.00
2014-10-19,60.0,45.7,32.0,-99.9,0.0,200.0,0,0,100,0.00,40.00,0,0,0,0.00
2014-10-20,65.0,52.9,43.0,-99.9,0.0,200.0,0,0,100,0.00,40.00,0,0,0,0.00
2014-10-21,55.0,46.5,37.0,-99.9,0.0,200.0,0,0,100,0.00,40.00,0,0,0,0.00
2014-10-22,58.0,43.5,32.0,-99.9,0.0,200.0,0,0,100,0.00,40.00,0,0,0,0.00
2014-10-23,59.0,47.1,34.0,-99.9,0.0,200.0,0,0,100,0.00,40.00,0,0,0,0.00
2014-10-24,66.0,53.2,41.0,-99.9,0.0,200.0,0,0,100,0.00,40.00,0,0,0,0.00
2014-10-25,73.0,59.3,48.0,-99.9,0.0,200.0,0,0,100,0.00,40.00,0,0,0,0.00
2014-10-26,64.0,52.7,35.0,-99.9,0.0,200.0,0,0,100,0.00,40.00,0,0,0,0.00
2014-10-27,76.0,65.7,56.0,-99.9,0.0,200.0,0,0,100,0.00,40.00,0,0,0,0.00
2014-10-28,64.0,51.7,45.0,-99.9,0.0,200.0,0,0,100,0.00,40.00,0,0,0,0.00
2014-10-29,51.0,42.8,33.0,-99.9,0.0,200.0,0,0,100,0.00,40.00,0,0,0,0.00
2014-10-30,52.0,39.9,29.0,-99.9,0.0,200.0,0,0,100,0.00,40.00,0,0,0,0.00
2014-10-31,45.0,36.1,27.0,-99.9,0.0,200.0,0,0,100,0.00,40.00,0,0,0,0.00
2014-11-1,44.0,32.1,22.0,-99.9,0.0,200.0,0,0,100,0.00,40.00,0,0,0,0.00
2014-11-2,51.0,38.0,25.0,-99.9,0.0,200.0,0,0,100,0.00,40.00,0,0,0,0.00
2014-11-3,65.0,53.6,39.0,-99.9,0.0,200.0,0,0,100,0.00,40.00,0,0,0,0.00
2014-11-4,58.0,47.0,40.0,-99.9,0.0,200.0,0,0,100,0.00,40.00,0,0,0,0.00
2014-11-5,58.0,45.1,31.0,-99.9,0.0,200.0,0,0,100,0.00,40.00,0,0,0,0.00
2014-11-6,47.0,40.9,33.0,-99.9,0.0,200.0,0,0,100,0.00,40.00,0,0,0,0.00
2014-11-7,41.0,35.4,25.0,-99.9,0.0,200.0,0,0,100,0.00,40.00,0,0,0,0.00
2014-11-8,47.0,40.2,35.0,-99.9,0.0,200.0,0,0,100,0.00,40.00,0,0,0,0.00
2014-11-9,52.0,42.3,30.0,-99.9,0.0,200.0,0,0,100,0.00,40.00,0,0,0,0.00
2014-11-10,62.0,49.9,40.0,-99.9,0.0,200.0,0,0,100,0.00,40.00,0,0,0,0.00
2014-11-11,51.0,35.3,28.0,-99.9,0.0,200.0,0,0,100,0.00,40.00,0,0,0,0.00
2014-11-12,28.0,25.4,22.0,-99.9,0.0,200.0,0,0,100,0.00,40.00,0,0,0,0.00
2014-11-13,29.0,24.4,21.0,-99.9,0.0,200.0,0,0,100,0.00,40.00,0,0,0,0.00
2014-11-14,32.0,21.1,13.0,-99.9,0.0,200.0,0,0,100,0.00,40.00,0,0,0,0.00
2014-11-15,29.0,23.1,14.0,-99.9,0.0,200.0,0,0,100,0.00,40.00,0,0,0,0.00
2014-11-16,29.0,21.3,13.0,-99.9,0.0,200.0,0,0,100,0.00,40.00,0,0,0,0.00
2014-11-17,17.0,11.8,9.0,-99.9,0.0,200.0,0,0,100,0.00,40.00,0,0,0,0.00
2014-11-18,18.0,13.3,7.0,-99.9,0.0,200.0,0,0,100,0.00,40.00,0,0,0,0.00
2014-11-19,26.0,21.3,13.0,-99.9,0.0,200.0,0,0,100,0.00,40.00,0,0,0,0.00
2014-11-20,27.0,20.5,14.0,-99.9,0.0,200.0,0,0,100,0.00,40.00,0,0,0,0.00
2014-11-21,32.0,18.8,6.0,-99.9,0.0,200.0,0,0,100,0.00,40.00,0,0,0,0.00
2014-11-22,49.0,40.2,31.0,-99.9,0.0,200.0,0,0,100,0.00,40.00,0,0,0,0.00
2014-11-23,48.0,46.4,45.0,-99.9,0.0,200.0,0,0,100,0.00,40.00,0,0,0,0.00
2014-11-24,45.0,28.9,23.0,-99.9,0.0,200.0,0,0,100,0.00,40.00,0,0,0,0.00
2014-11-25,24.0,17.5,11.0,-99.9,0.0,200.0,0,0,100,0.00,40.00,0,0,0,0.00
2014-11-26,26.0,19.5,8.0,-99.9,0.0,200.0,0,0,100,0.00,40.00,0,0,0,0.00
2014-11-27,25.0,18.7,9.0,-99.9,0.0,200.0,0,0,100,0.00,40.00,0,0,0,0.00
2014-11-28,31.0,21.2,10.0,-99.9,0.0,200.0,0,0,100,0.00,40.00,0,0,0,0.00
2014-11-29,45.0,36.3,27.0,-99.9,0.0,200.0,0,0,100,0.00,40.00,0,0,0,0.00
2014-11-30,37.0,30.5,22.0,-99.9,0.0,200.0,0,0,100,0.00,40.00,0,0,0,0.00
2014-12-1,20.0,15.9,10.0,-99.9,0.0,200.0,0,0,100,0.00,40.00,0,0,0,0.00
2014-12-2,31.0,23.4,11.0,-99.9,0.0,200.0,0,0,100,0.00,40.00,0,0,0,0.00
2014-12-3,36.0,26.3,19.0,-99.9,0.0,200.0,0,0,100,0.00,40.00,0,0,0,0.00
2014-12-4,31.0,26.1,19.0,-99.9,0.0,200.0,0,0,100,0.00,40.00,0,0,0,0.00
2014-12-5,37.0,32.7,29.0,-99.9,0.0,200.0,0,0,100,0.00,40.00,0,0,0,0.00
2014-12-6,37.0,30.9,25.0,-99.9,0.0,200.0,0,0,100,0.00,40.00,0,0,0,0.00
2014-12-7,32.0,27.3,21.0,-99.9,0.0,200.0,0,0,100,0.00,40.00,0,0,0,0.00
2014-12-8,36.0,31.7,29.0,-99.9,0.0,200.0,0,0,100,0.00,40.00,0,0,0,0.00
2014-12-9,34.0,31.5,29.0,-99.9,0.0,200.0,0,0,100,0.00,40.00,0,0,0,0.00
2014-12-10,31.0,27.4,25.0,-99.9,0.0,200.0,0,0,100,0.00,40.00,0,0,0,0.00
2014-12-11,33.0,26.6,21.0,-99.9,0.0,200.0,0,0,100,0.00,40.00,0,0,0,0.00
2014-12-12,33.0,30.8,21.0,-99.9,0.0,200.0,0,0,100,0.00,40.00,0,0,0,0.00
2014-12-13,45.0,36.7,28.0,-99.9,0.0,200.0,0,0,100,0.00,40.00,0,0,0,0.00
2014-12-14,47.0,42.4,36.0,-99.9,0.0,200.0,0,0,100,0.00,40.00,0,0,0,0.00
2014-12-15,44.0,42.9,41.0,-99.9,0.0,200.0,0,0,100,0.00,40.00,0,0,0,0.00
2014-12-16,43.0,35.1,23.0,-99.9,0.0,200.0,0,0,100,0.00,40.00,0,0,0,0.00
2014-12-17,25.0,22.3,16.0,-99.9,0.0,200.0,0,0,100,0.00,40.00,0,0,0,0.00
2014-12-18,26.0,19.6,15.0,-99.9,0.0,200.0,0,0,100,0.00,40.00,0,0,0,0.00
2014-12-19,29.0,25.5,22.0,-99.9,0.0,200.0,0,0,100,0.00,40.00,0,0,0,0.00
2014-12-20,31.0,28.3,26.0,-99.9,0.0,200.0,0,0,100,0.00,40.00,0,0,0,0.00
2014-12-21,36.0,32.4,30.0,-99.9,0.0,200.0,0,0,100,0.00,40.00,0,0,0,0.00
2014-12-22,39.0,33.6,31.0,-99.9,0.0,200.0,0,0,100,0.00,40.00,0,0,0,0.00
2014-12-23,42.0,39.5,36.0,-99.9,0.0,200.0,0,0,100,0.00,40.00,0,0,0,0.00
2014-12-24,36.0,35.1,34.0,-99.9,0.0,200.0,0,0,100,0.00,40.00,0,0,0,0.00
2014-12-25,44.0,36.3,31.0,-99.9,0.0,200.0,0,0,100,0.00,40.00,0,0,0,0.00
2014-12-26,50.0,42.2,35.0,-99.9,0.0,200.0,0,0,100,0.00,40.00,0,0,0,0.00
2014-12-27,46.0,38.2,28.0,-99.9,0.0,200.0,0,0,100,0.00,40.00,0,0,0,0.00
2014-12-28,32.0,23.6,18.0,-99.9,0.0,200.0,0,0,100,0.00,40.00,0,0,0,0.00
2014-12-29,28.0,23.9,18.0,-99.9,0.0,200.0,0,0,100,0.00,40.00,0,0,0,0.00
2014-12-30,18.0,11.5,6.0,-99.9,0.0,200.0,0,0,100,0.00,40.00,0,0,0,0.00
2014-12-31,18.0,9.2,1.0,-99.9,0.0,200.0,0,0,100,0.00,40.00,0,0,0,0.00
2015-1-1,32.0,20.9,12.0,-99.9,0.0,200.0,0,0,100,0.00,40.00,0,0,0,0.00
2015-1-2,33.0,24.1,13.0,-99.9,0.0,200.0,0,0,100,0.00,40.00,0,0,0,0.00